Time;durP1;ratioP1;P1;durP2;ratioP2;P2;SDS_P1;SDS_P2;PMS_P1;PMS_P2;Temp;Humidity;BMP_temperature;BMP_pressure;BME280_temperature;BME280_humidity;BME280_pressure;Samples;Min_cycle;Max_cycle;Signal;HPM_P1;HPM_P2
2022/06/24 02:51:05;;;;;;;0.30;0.30;;;;;;;19.79;100.00;100736.53;2611218;46;20435;-64
2022/06/24 02:53:36;;;;;;;0.38;0.38;;;;;;;19.58;100.00;100742.94;2616872;51;20208;-63
2022/06/24 02:56:08;;;;;;;0.70;0.70;;;;;;;19.59;100.00;100743.75;2616819;54;20146;-63
2022/06/24 02:58:39;;;;;;;0.10;0.10;;;;;;;19.96;100.00;100759.44;2616831;54;20142;-62
2022/06/24 03:01:10;;;;;;;0.10;0.10;;;;;;;20.14;100.00;100762.06;2616644;54;20149;-63
2022/06/24 03:03:41;;;;;;;2.17;0.35;;;;;;;20.52;100.00;100759.91;2616745;54;20142;-62
2022/06/24 03:06:14;;;;;;;1.02;0.57;;;;;;;20.24;100.00;100760.97;2616607;54;20253;-63
2022/06/24 03:08:44;;;;;;;0.90;0.90;;;;;;;19.57;100.00;100751.00;2616569;54;20141;-63
2022/06/24 03:11:15;;;;;;;0.20;0.20;;;;;;;18.91;100.00;100752.94;2616979;39;20555;-63
2022/06/24 03:13:45;;;;;;;0.40;0.40;;;;;;;18.91;100.00;100761.66;2616629;54;20142;-63
2022/06/24 03:16:16;;;;;;;0.25;0.25;;;;;;;19.52;100.00;100754.06;2616832;39;20552;-63
2022/06/24 03:18:46;;;;;;;1.50;1.50;;;;;;;19.92;100.00;100753.63;2616685;54;20170;-63
2022/06/24 03:21:19;;;;;;;0.88;0.80;;;;;;;20.13;100.00;100757.75;2616531;54;20758;-63
2022/06/24 03:23:49;;;;;;;0.22;0.22;;;;;;;20.66;100.00;100755.88;2616608;54;20148;-63
2022/06/24 03:26:19;;;;;;;0.00;0.00;;;;;;;21.21;100.00;100755.50;2616612;54;20149;-64
2022/06/24 03:28:49;;;;;;;0.00;0.00;;;;;;;21.28;100.00;100751.25;2616593;47;20149;-62
2022/06/24 03:31:20;;;;;;;1.10;0.47;;;;;;;21.40;100.00;100750.78;2616820;39;20584;-62
2022/06/24 03:33:50;;;;;;;1.02;0.80;;;;;;;21.38;100.00;100752.75;2617336;54;20153;-63
2022/06/24 03:36:23;;;;;;;1.33;1.23;;;;;;;21.29;100.00;100755.56;2616814;54;20156;-63
2022/06/24 03:38:53;;;;;;;13.82;2.83;;;;;;;21.27;100.00;100757.50;2616997;39;20574;-63
2022/06/24 03:41:23;;;;;;;0.25;0.10;;;;;;;21.39;100.00;100759.69;2616558;54;20142;-62
2022/06/24 03:43:54;;;;;;;0.75;0.70;;;;;;;21.10;100.00;100750.50;2616575;54;20678;-62
2022/06/24 03:46:24;;;;;;;0.15;0.15;;;;;;;21.20;100.00;100749.41;2616595;54;20141;-63
2022/06/24 03:48:54;;;;;;;0.15;0.15;;;;;;;21.35;100.00;100746.97;2616544;54;20149;-62
2022/06/24 03:51:27;;;;;;;0.30;0.30;;;;;;;21.05;100.00;100744.88;2616717;54;20149;-63
2022/06/24 03:53:57;;;;;;;0.13;0.13;;;;;;;21.55;100.00;100747.53;2616446;54;20141;-62
2022/06/24 03:56:27;;;;;;;0.10;0.10;;;;;;;21.99;100.00;100740.22;2616534;54;20142;-63
2022/06/24 03:58:58;;;;;;;0.20;0.20;;;;;;;21.88;100.00;100734.22;2616443;54;20156;-63
2022/06/24 04:01:28;;;;;;;0.15;0.10;;;;;;;22.04;100.00;100725.50;2616197;54;20149;-63
2022/06/24 04:03:58;;;;;;;1.85;1.45;;;;;;;22.27;100.00;100713.25;2616754;54;20216;-62
2022/06/24 04:06:31;;;;;;;0.00;0.00;;;;;;;22.48;100.00;100712.72;2616170;54;20166;-63
2022/06/24 04:09:02;;;;;;;0.10;0.10;;;;;;;22.93;100.00;100722.72;2616198;54;20182;-63
2022/06/24 04:11:32;;;;;;;0.00;0.00;;;;;;;22.91;100.00;100721.25;2616498;54;20141;-64
2022/06/24 04:14:03;;;;;;;0.17;0.17;;;;;;;23.38;100.00;100724.66;2616323;54;20268;-64
2022/06/24 04:16:33;;;;;;;0.00;0.00;;;;;;;23.64;100.00;100714.56;2616860;39;20587;-64
2022/06/24 04:19:04;;;;;;;0.20;0.20;;;;;;;23.15;100.00;100729.06;2615909;47;20168;-64
2022/06/24 04:21:36;;;;;;;1.13;0.40;;;;;;;23.09;100.00;100735.88;2616386;47;20141;-64
2022/06/24 04:24:07;;;;;;;0.00;0.00;;;;;;;22.39;100.00;100741.00;2616603;47;20141;-63
2022/06/24 04:26:38;;;;;;;2.17;1.15;;;;;;;22.30;100.00;100736.72;2616168;54;20152;-63
2022/06/24 04:29:13;;;;;;;0.35;0.35;;;;;;;22.15;100.00;100735.72;2616446;54;20141;-63
2022/06/24 04:31:44;;;;;;;0.20;0.20;;;;;;;22.25;100.00;100735.56;2616160;54;20150;-64
2022/06/24 04:34:14;;;;;;;0.00;0.00;;;;;;;22.24;100.00;100733.91;2616180;54;20157;-62
2022/06/24 04:36:47;;;;;;;0.03;0.03;;;;;;;22.39;100.00;100748.09;2616312;54;20141;-64
2022/06/24 04:39:17;;;;;;;0.35;0.13;;;;;;;22.51;100.00;100743.31;2616110;54;20142;-64
2022/06/24 04:41:47;;;;;;;0.40;0.40;;;;;;;23.04;100.00;100734.72;2616550;47;21106;-64
2022/06/24 04:44:18;;;;;;;1.20;0.85;;;;;;;22.56;100.00;100738.31;2616545;39;20567;-62
2022/06/24 04:46:48;;;;;;;1.40;1.30;;;;;;;21.97;100.00;100747.47;2616654;39;20543;-63
2022/06/24 04:49:18;;;;;;;1.40;1.08;;;;;;;21.72;100.00;100749.22;2616039;54;20201;-63
2022/06/24 04:51:51;;;;;;;0.82;0.52;;;;;;;21.83;100.00;100747.06;2616189;54;20171;-63
2022/06/24 04:54:21;;;;;;;1.27;0.35;;;;;;;22.07;100.00;100751.56;2616291;54;20729;-63
2022/06/24 04:56:52;;;;;;;0.10;0.10;;;;;;;22.90;100.00;100749.53;2616401;54;20781;-64
2022/06/24 04:59:22;;;;;;;0.15;0.15;;;;;;;23.20;100.00;100748.72;2616054;54;20141;-64
2022/06/24 05:01:52;;;;;;;0.03;0.03;;;;;;;23.43;100.00;100753.28;2616234;54;20141;-63
2022/06/24 05:04:22;;;;;;;0.00;0.00;;;;;;;23.58;100.00;100755.03;2616061;54;20141;-63
2022/06/24 05:06:55;;;;;;;0.10;0.10;;;;;;;24.06;100.00;100755.69;2616172;54;20201;-63
2022/06/24 05:09:26;;;;;;;0.30;0.30;;;;;;;24.24;100.00;100753.53;2616082;54;20151;-64
2022/06/24 05:11:56;;;;;;;0.28;0.28;;;;;;;23.72;100.00;100748.94;2616494;54;20150;-63
2022/06/24 05:14:26;;;;;;;0.00;0.00;;;;;;;23.89;100.00;100751.50;2616458;54;20161;-63
2022/06/24 05:16:56;;;;;;;0.00;0.00;;;;;;;24.01;100.00;100748.25;2617213;54;20686;-64
2022/06/24 05:19:27;;;;;;;0.00;0.00;;;;;;;24.28;100.00;100746.88;2617222;47;20141;-64
2022/06/24 05:22:00;;;;;;;0.17;0.17;;;;;;;24.46;100.00;100735.94;2617167;39;20542;-64
2022/06/24 05:24:30;;;;;;;1.20;1.10;;;;;;;24.00;100.00;100759.00;2616911;47;20166;-64
2022/06/24 05:27:00;;;;;;;0.17;0.17;;;;;;;23.76;100.00;100760.84;2616988;47;20142;-64
2022/06/24 05:29:31;;;;;;;0.82;0.82;;;;;;;23.41;100.00;100756.06;2616964;54;20687;-64
2022/06/24 05:32:01;;;;;;;1.58;1.42;;;;;;;23.25;100.00;100764.09;2616643;54;20166;-64
2022/06/24 05:34:32;;;;;;;0.40;0.40;;;;;;;23.55;100.00;100773.88;2617270;54;20799;-64
2022/06/24 05:37:05;;;;;;;1.20;1.13;;;;;;;23.39;100.00;100759.91;2616959;54;20142;-65
2022/06/24 05:39:35;;;;;;;3.83;1.45;;;;;;;23.40;100.00;100748.28;2617343;39;20543;-64
2022/06/24 05:42:06;;;;;;;1.83;1.73;;;;;;;23.64;100.00;100748.19;2617633;39;20592;-63
2022/06/24 05:44:37;;;;;;;2.13;1.35;;;;;;;23.57;100.00;100765.78;2616880;46;20164;-64
2022/06/24 05:47:07;;;;;;;0.52;0.47;;;;;;;23.82;100.00;100766.44;2616703;54;20142;-64
2022/06/24 05:49:38;;;;;;;4.07;1.48;;;;;;;23.55;100.00;100773.88;2616522;54;20204;-64
2022/06/24 05:52:11;;;;;;;0.10;0.10;;;;;;;23.72;100.00;100779.91;2616892;54;20142;-64
2022/06/24 05:57:23;;;;;;;1.05;0.85;;;;;;;24.42;100.00;100761.19;2616078;39;20591;-64
2022/06/24 05:59:54;;;;;;;1.67;1.38;;;;;;;24.31;100.00;100767.75;2616510;54;20646;-65
2022/06/24 06:02:24;;;;;;;1.38;1.17;;;;;;;24.45;95.62;100777.56;2616427;54;20149;-64
2022/06/24 06:04:54;;;;;;;0.70;0.70;;;;;;;24.50;99.74;100759.28;2616241;54;20256;-63
2022/06/24 06:07:27;;;;;;;2.92;1.48;;;;;;;24.23;94.38;100773.94;2616729;39;20554;-64
2022/06/24 06:09:58;;;;;;;1.40;1.30;;;;;;;24.29;95.73;100774.22;2616556;39;20202;-64
2022/06/24 06:12:28;;;;;;;0.00;0.00;;;;;;;24.35;94.33;100782.31;2616089;54;20160;-64
2022/06/24 06:14:59;;;;;;;2.08;1.40;;;;;;;24.48;97.08;100777.19;2614697;47;20141;-66
2022/06/24 06:17:30;;;;;;;1.08;0.70;;;;;;;24.28;92.14;100772.56;2616051;47;20269;-65
2022/06/24 06:20:01;;;;;;;0.98;0.50;;;;;;;24.25;93.43;100776.41;2616337;54;20142;-63
2022/06/24 06:22:35;;;;;;;1.45;1.35;;;;;;;24.47;92.13;100791.50;2616220;54;20141;-64
2022/06/24 06:25:06;;;;;;;0.82;0.60;;;;;;;24.31;94.84;100791.63;2616168;54;20148;-64
2022/06/24 06:27:36;;;;;;;2.75;1.85;;;;;;;24.39;92.79;100791.56;2616158;54;20141;-64
2022/06/24 06:30:08;;;;;;;2.08;0.68;;;;;;;24.55;92.69;100788.75;2616397;54;20148;-64
2022/06/24 06:32:38;;;;;;;1.42;1.33;;;;;;;24.65;89.14;100788.47;2615976;54;20141;-64
2022/06/24 06:35:09;;;;;;;5.93;2.30;;;;;;;24.34;92.50;100783.31;2616119;54;20141;-64
2022/06/24 06:37:42;;;;;;;2.15;1.95;;;;;;;24.61;88.66;100805.78;2616443;54;20172;-64
2022/06/24 06:40:13;;;;;;;1.30;1.08;;;;;;;24.67;92.63;100781.97;2616383;54;20150;-64
2022/06/24 06:42:43;;;;;;;1.73;1.42;;;;;;;24.56;96.30;100801.00;2617123;54;20149;-65
2022/06/24 06:45:14;;;;;;;0.40;0.40;;;;;;;24.07;97.88;100779.34;2616507;54;20663;-64
2022/06/24 06:47:44;;;;;;;2.20;1.73;;;;;;;24.19;100.00;100791.19;2616122;54;20149;-64
2022/06/24 06:50:14;;;;;;;0.63;0.63;;;;;;;24.37;100.00;100780.28;2616256;54;20199;-63
2022/06/24 06:52:47;;;;;;;4.78;1.67;;;;;;;24.95;97.90;100782.22;2616558;54;20141;-63
2022/06/24 06:55:18;;;;;;;0.80;0.73;;;;;;;24.99;84.43;100780.03;2615598;54;20150;-63
2022/06/24 06:57:48;;;;;;;3.08;0.85;;;;;;;25.05;82.92;100788.06;2616996;54;20142;-64
2022/06/24 07:00:20;;;;;;;0.85;0.65;;;;;;;24.98;81.21;100783.69;2616441;54;20149;-64
2022/06/24 07:02:52;;;;;;;1.05;1.00;;;;;;;24.65;85.36;100773.38;2616505;54;20142;-63
2022/06/24 07:05:22;;;;;;;0.80;0.80;;;;;;;24.74;86.69;100791.88;2616635;54;20148;-64
2022/06/24 07:07:55;;;;;;;0.68;0.65;;;;;;;24.92;83.00;100771.13;2616610;46;20157;-64
2022/06/24 07:10:26;;;;;;;1.80;1.63;;;;;;;24.95;83.63;100781.41;2616757;54;20148;-64
2022/06/24 07:12:56;;;;;;;0.17;0.17;;;;;;;25.04;78.26;100782.94;2616422;54;20141;-64
2022/06/24 07:15:26;;;;;;;1.38;0.95;;;;;;;25.07;77.03;100783.41;2616459;54;20145;-63
2022/06/24 07:17:56;;;;;;;1.60;0.88;;;;;;;25.10;82.44;100793.66;2616591;54;20149;-65
2022/06/24 07:20:27;;;;;;;1.70;0.77;;;;;;;24.92;85.27;100768.47;2617061;47;20807;-63
2022/06/24 07:23:00;;;;;;;1.45;1.20;;;;;;;25.10;79.60;100788.34;2616683;54;20142;-64
2022/06/24 07:25:30;;;;;;;2.30;1.67;;;;;;;24.61;86.77;100788.03;2616841;54;20141;-63
2022/06/24 07:28:00;;;;;;;0.47;0.47;;;;;;;24.79;85.53;100769.09;2616513;54;20278;-64
2022/06/24 07:30:31;;;;;;;0.20;0.20;;;;;;;24.45;81.05;100774.09;2616471;54;20141;-63
2022/06/24 07:33:02;;;;;;;0.85;0.85;;;;;;;24.47;82.16;100780.88;2616294;54;20205;-64
2022/06/24 07:35:32;;;;;;;1.75;1.35;;;;;;;24.92;76.52;100779.09;2616619;54;20726;-64
2022/06/24 07:38:22;;;;;;;0.30;0.30;;;;;;;25.09;76.62;100776.06;2616473;54;20168;-65
2022/06/24 07:40:55;;;;;;;0.80;0.50;;;;;;;25.21;75.76;100773.78;2616564;54;20149;-64
2022/06/24 07:43:25;;;;;;;0.88;0.88;;;;;;;25.14;76.96;100778.19;2616734;39;20569;-65
2022/06/24 21:39:42;;;;;;;0.30;0.30;;;;;;;24.09;100.00;100663.34;2610651;47;20412;-65
2022/06/24 21:42:14;;;;;;;0.00;0.00;;;;;;;24.38;100.00;100665.25;2616371;39;20513;-65
2022/06/24 21:44:44;;;;;;;0.00;0.00;;;;;;;24.11;100.00;100663.97;2616015;54;20141;-65
2022/06/24 21:47:15;;;;;;;0.00;0.00;;;;;;;23.58;100.00;100666.78;2615965;54;20141;-65
2022/06/24 21:49:45;;;;;;;0.15;0.15;;;;;;;23.60;100.00;100662.94;2616083;54;20708;-65
2022/06/24 21:52:15;;;;;;;0.57;0.20;;;;;;;23.77;100.00;100672.41;2616084;54;20145;-66
2022/06/24 21:54:48;;;;;;;0.28;0.28;;;;;;;23.71;100.00;100662.50;2615827;54;20146;-65
2022/06/24 21:57:18;;;;;;;2.08;1.27;;;;;;;23.52;100.00;100665.66;2617480;54;20141;-65
2022/06/24 21:59:49;;;;;;;0.30;0.30;;;;;;;23.75;100.00;100655.84;2616709;54;20142;-66
2022/06/24 22:02:19;;;;;;;0.00;0.00;;;;;;;23.90;100.00;100647.13;2616717;54;20166;-65
2022/06/24 22:04:49;;;;;;;0.65;0.65;;;;;;;23.92;100.00;100659.19;2616848;54;20160;-65
2022/06/24 22:07:20;;;;;;;0.00;0.00;;;;;;;23.50;100.00;100659.72;2616758;54;20149;-66
2022/06/24 22:09:53;;;;;;;0.17;0.17;;;;;;;23.21;100.00;100655.06;2616943;54;20141;-66
2022/06/24 22:12:23;;;;;;;0.00;0.00;;;;;;;23.33;100.00;100658.13;2616932;54;20145;-65
2022/06/24 22:14:54;;;;;;;0.00;0.00;;;;;;;23.25;100.00;100659.00;2616879;54;20675;-64
2022/06/24 22:17:47;;;;;;;0.00;0.00;;;;;;;23.65;100.00;100657.94;2616876;54;20142;-64
2022/06/24 22:20:14;;;;;;;0.10;0.10;;;;;;;23.33;100.00;100658.13;2617649;39;20557;-64
2022/06/24 22:22:45;;;;;;;1.98;1.50;;;;;;;23.49;100.00;100647.47;2618081;54;20142;-65
2022/06/24 22:25:19;;;;;;;0.00;0.00;;;;;;;23.86;100.00;100651.16;2616700;54;20146;-66
2022/06/24 22:27:50;;;;;;;0.00;0.00;;;;;;;24.04;100.00;100647.16;2616760;54;20216;-64
2022/06/24 22:30:22;;;;;;;0.00;0.00;;;;;;;24.20;100.00;100648.84;2616638;54;20176;-65
2022/06/24 22:32:52;;;;;;;0.00;0.00;;;;;;;24.42;100.00;100644.47;2616962;54;20142;-64
2022/06/24 22:35:23;;;;;;;0.00;0.00;;;;;;;24.18;100.00;100642.91;2616933;54;20145;-64
2022/06/24 22:37:54;;;;;;;0.55;0.55;;;;;;;23.63;100.00;100637.94;2616635;54;20201;-64
2022/06/24 22:40:27;;;;;;;0.55;0.55;;;;;;;23.83;100.00;100649.69;2616983;54;20141;-65
2022/06/24 22:42:58;;;;;;;0.00;0.00;;;;;;;23.62;100.00;100644.22;2619486;54;20141;-65
2022/06/24 22:45:28;;;;;;;0.22;0.22;;;;;;;23.54;100.00;100642.47;2618195;54;20142;-65
2022/06/24 22:47:58;;;;;;;0.00;0.00;;;;;;;23.65;100.00;100643.88;2616686;54;20148;-64
2022/06/24 22:50:29;;;;;;;1.58;1.48;;;;;;;23.38;100.00;100639.06;2616454;54;20150;-65
2022/06/24 22:52:59;;;;;;;0.68;0.52;;;;;;;22.95;100.00;100632.56;2616584;54;20681;-65
2022/06/24 22:55:32;;;;;;;2.10;2.00;;;;;;;22.89;100.00;100633.25;2616544;54;20142;-66
2022/06/24 22:58:02;;;;;;;0.13;0.13;;;;;;;22.67;100.00;100635.63;2616648;54;20171;-65
2022/06/24 23:00:33;;;;;;;0.20;0.20;;;;;;;23.12;100.00;100631.47;2616576;54;20145;-66
2022/06/24 23:03:03;;;;;;;0.52;0.52;;;;;;;23.36;100.00;100635.78;2616496;54;20152;-66
2022/06/24 23:05:33;;;;;;;4.93;4.53;;;;;;;22.70;100.00;100642.44;2616629;47;20180;-64
2022/06/24 23:08:04;;;;;;;2.13;0.65;;;;;;;22.23;100.00;100637.09;2616687;54;20146;-66
2022/06/24 23:10:37;;;;;;;2.47;0.40;;;;;;;22.26;100.00;100642.06;2617523;39;20535;-64
2022/06/24 23:13:07;;;;;;;0.10;0.10;;;;;;;21.77;100.00;100635.97;2616635;54;20149;-65
2022/06/24 23:15:37;;;;;;;0.17;0.17;;;;;;;21.95;100.00;100643.78;2616519;54;20156;-66
2022/06/24 23:18:07;;;;;;;0.10;0.08;;;;;;;21.53;100.00;100641.25;2616961;39;20630;-65
2022/06/24 23:20:38;;;;;;;0.63;0.63;;;;;;;21.32;100.00;100642.56;2616433;54;20152;-64
2022/06/24 23:23:08;;;;;;;1.50;1.50;;;;;;;21.07;100.00;100645.25;2616561;54;20142;-65
2022/06/24 23:25:41;;;;;;;0.00;0.00;;;;;;;21.07;100.00;100650.53;2616777;54;20141;-64
2022/06/24 23:28:11;;;;;;;0.00;0.00;;;;;;;21.45;100.00;100648.19;2617727;54;20141;-64
2022/06/24 23:30:42;;;;;;;0.10;0.10;;;;;;;21.78;100.00;100649.03;2617020;39;20564;-65
2022/06/24 23:33:12;;;;;;;0.32;0.32;;;;;;;21.79;100.00;100645.38;2616544;54;20505;-64
2022/06/24 23:35:42;;;;;;;0.00;0.00;;;;;;;21.79;100.00;100645.38;2616660;54;20161;-64
2022/06/24 23:38:12;;;;;;;0.00;0.00;;;;;;;22.10;100.00;100647.38;2616412;54;20215;-64
2022/06/24 23:40:53;;;;;;;0.45;0.45;;;;;;;21.81;100.00;100647.88;2616576;54;20148;-65
2022/06/24 23:43:24;;;;;;;0.40;0.40;;;;;;;21.85;100.00;100652.66;2616511;54;20141;-64
2022/06/24 23:45:55;;;;;;;0.82;0.77;;;;;;;22.05;100.00;100650.53;2616432;54;20149;-65
2022/06/24 23:53:51;;;;;;;0.28;0.28;;;;;;;20.97;100.00;100645.41;2616527;54;20141;-65
2022/06/24 23:56:24;;;;;;;0.45;0.38;;;;;;;20.79;100.00;100644.69;2616771;39;20611;-65
2022/06/24 23:58:54;;;;;;;0.65;0.10;;;;;;;21.02;100.00;100646.56;2616647;54;20170;-65
